sensor_id;sensor_type;location;lat;lon;timestamp;P1;durP1;ratioP1;P2;durP2;ratioP2
19189;SDS011;9727;50.200;19.038;2024-02-21T00:02:12;19.30;;;6.47;;
19189;SDS011;9727;50.200;19.038;2024-02-21T00:04:40;17.00;;;6.03;;
19189;SDS011;9727;50.200;19.038;2024-02-21T00:07:12;13.37;;;5.60;;
19189;SDS011;9727;50.200;19.038;2024-02-21T00:09:38;14.80;;;4.93;;
19189;SDS011;9727;50.200;19.038;2024-02-21T00:12:05;13.97;;;4.77;;
19189;SDS011;9727;50.200;19.038;2024-02-21T00:14:33;14.70;;;5.13;;
19189;SDS011;9727;50.200;19.038;2024-02-21T00:17:00;16.00;;;5.43;;
19189;SDS011;9727;50.200;19.038;2024-02-21T00:19:26;16.37;;;6.73;;
19189;SDS011;9727;50.200;19.038;2024-02-21T00:21:53;15.83;;;4.60;;
19189;SDS011;9727;50.200;19.038;2024-02-21T00:24:20;15.13;;;4.63;;
19189;SDS011;9727;50.200;19.038;2024-02-21T00:26:46;12.83;;;4.30;;
19189;SDS011;9727;50.200;19.038;2024-02-21T00:29:13;11.37;;;4.20;;
19189;SDS011;9727;50.200;19.038;2024-02-21T00:31:47;15.33;;;5.10;;
19189;SDS011;9727;50.200;19.038;2024-02-21T00:34:14;16.07;;;5.17;;
19189;SDS011;9727;50.200;19.038;2024-02-21T00:36:45;13.33;;;4.73;;
19189;SDS011;9727;50.200;19.038;2024-02-21T00:39:12;12.03;;;4.80;;
19189;SDS011;9727;50.200;19.038;2024-02-21T00:41:38;12.77;;;6.20;;
19189;SDS011;9727;50.200;19.038;2024-02-21T00:44:05;23.70;;;8.57;;
19189;SDS011;9727;50.200;19.038;2024-02-21T00:46:32;27.43;;;11.03;;
19189;SDS011;9727;50.200;19.038;2024-02-21T00:49:00;25.23;;;11.47;;
19189;SDS011;9727;50.200;19.038;2024-02-21T00:51:27;28.17;;;11.33;;
19189;SDS011;9727;50.200;19.038;2024-02-21T00:53:55;23.70;;;10.63;;
19189;SDS011;9727;50.200;19.038;2024-02-21T00:56:21;22.97;;;9.07;;
19189;SDS011;9727;50.200;19.038;2024-02-21T00:58:49;25.13;;;9.27;;
19189;SDS011;9727;50.200;19.038;2024-02-21T01:01:20;19.33;;;9.17;;
19189;SDS011;9727;50.200;19.038;2024-02-21T01:03:47;20.20;;;8.20;;
19189;SDS011;9727;50.200;19.038;2024-02-21T01:06:17;25.43;;;11.77;;
19189;SDS011;9727;50.200;19.038;2024-02-21T01:08:49;27.93;;;12.80;;
19189;SDS011;9727;50.200;19.038;2024-02-21T01:11:15;24.23;;;12.30;;
19189;SDS011;9727;50.200;19.038;2024-02-21T01:13:43;29.37;;;12.87;;
19189;SDS011;9727;50.200;19.038;2024-02-21T01:16:12;38.87;;;15.23;;
19189;SDS011;9727;50.200;19.038;2024-02-21T01:18:38;32.07;;;14.47;;
19189;SDS011;9727;50.200;19.038;2024-02-21T01:21:06;32.10;;;14.23;;
19189;SDS011;9727;50.200;19.038;2024-02-21T01:23:34;28.27;;;12.67;;
19189;SDS011;9727;50.200;19.038;2024-02-21T01:26:02;30.63;;;14.17;;
19189;SDS011;9727;50.200;19.038;2024-02-21T01:28:28;33.93;;;15.60;;
19189;SDS011;9727;50.200;19.038;2024-02-21T01:30:55;41.93;;;15.50;;
19189;SDS011;9727;50.200;19.038;2024-02-21T01:33:22;31.57;;;14.07;;
19189;SDS011;9727;50.200;19.038;2024-02-21T01:35:49;30.57;;;14.87;;
19189;SDS011;9727;50.200;19.038;2024-02-21T01:38:16;30.37;;;13.73;;
19189;SDS011;9727;50.200;19.038;2024-02-21T01:40:47;31.63;;;13.73;;
19189;SDS011;9727;50.200;19.038;2024-02-21T01:43:17;28.43;;;13.70;;
19189;SDS011;9727;50.200;19.038;2024-02-21T01:45:46;28.67;;;13.43;;
19189;SDS011;9727;50.200;19.038;2024-02-21T01:48:13;32.60;;;14.80;;
19189;SDS011;9727;50.200;19.038;2024-02-21T01:50:39;36.73;;;15.27;;
19189;SDS011;9727;50.200;19.038;2024-02-21T01:53:08;31.17;;;14.17;;
19189;SDS011;9727;50.200;19.038;2024-02-21T01:55:35;34.03;;;13.43;;
19189;SDS011;9727;50.200;19.038;2024-02-21T01:58:03;30.63;;;14.00;;
19189;SDS011;9727;50.200;19.038;2024-02-21T02:00:30;28.37;;;13.30;;
19189;SDS011;9727;50.200;19.038;2024-02-21T02:02:56;31.40;;;13.57;;
19189;SDS011;9727;50.200;19.038;2024-02-21T02:05:23;37.90;;;13.47;;
19189;SDS011;9727;50.200;19.038;2024-02-21T02:07:50;30.90;;;12.40;;
19189;SDS011;9727;50.200;19.038;2024-02-21T02:10:17;26.47;;;11.53;;
19189;SDS011;9727;50.200;19.038;2024-02-21T02:12:45;25.50;;;10.67;;
19189;SDS011;9727;50.200;19.038;2024-02-21T02:15:13;20.97;;;9.60;;
19189;SDS011;9727;50.200;19.038;2024-02-21T02:17:40;30.23;;;9.80;;
19189;SDS011;9727;50.200;19.038;2024-02-21T02:20:12;24.10;;;9.53;;
19189;SDS011;9727;50.200;19.038;2024-02-21T02:22:38;26.97;;;10.13;;
19189;SDS011;9727;50.200;19.038;2024-02-21T02:25:07;26.07;;;10.07;;
19189;SDS011;9727;50.200;19.038;2024-02-21T02:27:40;29.63;;;9.13;;
19189;SDS011;9727;50.200;19.038;2024-02-21T02:30:12;24.63;;;9.77;;
19189;SDS011;9727;50.200;19.038;2024-02-21T02:32:39;27.10;;;9.80;;
19189;SDS011;9727;50.200;19.038;2024-02-21T02:35:08;23.90;;;9.07;;
19189;SDS011;9727;50.200;19.038;2024-02-21T02:37:35;18.63;;;8.67;;
19189;SDS011;9727;50.200;19.038;2024-02-21T02:40:04;24.67;;;8.50;;
19189;SDS011;9727;50.200;19.038;2024-02-21T02:42:32;16.90;;;7.83;;
19189;SDS011;9727;50.200;19.038;2024-02-21T02:44:58;22.13;;;8.53;;
19189;SDS011;9727;50.200;19.038;2024-02-21T02:47:25;22.80;;;9.57;;
19189;SDS011;9727;50.200;19.038;2024-02-21T02:49:52;25.30;;;10.93;;
19189;SDS011;9727;50.200;19.038;2024-02-21T02:52:18;22.30;;;9.87;;
19189;SDS011;9727;50.200;19.038;2024-02-21T02:54:47;25.63;;;9.47;;
19189;SDS011;9727;50.200;19.038;2024-02-21T02:57:17;21.93;;;9.77;;
19189;SDS011;9727;50.200;19.038;2024-02-21T02:59:49;21.57;;;9.43;;
19189;SDS011;9727;50.200;19.038;2024-02-21T03:02:17;28.13;;;11.57;;
19189;SDS011;9727;50.200;19.038;2024-02-21T03:04:47;24.73;;;11.10;;
19189;SDS011;9727;50.200;19.038;2024-02-21T03:07:14;32.07;;;10.87;;
19189;SDS011;9727;50.200;19.038;2024-02-21T03:09:40;21.13;;;9.80;;
19189;SDS011;9727;50.200;19.038;2024-02-21T03:12:12;33.23;;;12.77;;
19189;SDS011;9727;50.200;19.038;2024-02-21T03:14:48;30.67;;;12.57;;
19189;SDS011;9727;50.200;19.038;2024-02-21T03:17:15;36.27;;;14.10;;
19189;SDS011;9727;50.200;19.038;2024-02-21T03:19:42;30.03;;;13.27;;
19189;SDS011;9727;50.200;19.038;2024-02-21T03:22:12;26.30;;;11.70;;
19189;SDS011;9727;50.200;19.038;2024-02-21T03:24:39;24.17;;;10.63;;
19189;SDS011;9727;50.200;19.038;2024-02-21T03:27:05;27.90;;;11.30;;
19189;SDS011;9727;50.200;19.038;2024-02-21T03:29:32;28.70;;;10.87;;
19189;SDS011;9727;50.200;19.038;2024-02-21T03:32:01;26.73;;;11.47;;
19189;SDS011;9727;50.200;19.038;2024-02-21T03:34:28;24.80;;;10.70;;
19189;SDS011;9727;50.200;19.038;2024-02-21T03:36:55;30.90;;;12.67;;
19189;SDS011;9727;50.200;19.038;2024-02-21T03:39:22;30.23;;;13.33;;
19189;SDS011;9727;50.200;19.038;2024-02-21T03:41:49;32.40;;;12.97;;
19189;SDS011;9727;50.200;19.038;2024-02-21T03:44:16;30.37;;;12.10;;
19189;SDS011;9727;50.200;19.038;2024-02-21T03:46:43;31.20;;;12.40;;
19189;SDS011;9727;50.200;19.038;2024-02-21T03:49:15;24.10;;;11.23;;
19189;SDS011;9727;50.200;19.038;2024-02-21T03:51:43;25.97;;;11.43;;
19189;SDS011;9727;50.200;19.038;2024-02-21T03:54:13;25.47;;;10.53;;
19189;SDS011;9727;50.200;19.038;2024-02-21T03:56:46;26.60;;;11.70;;
19189;SDS011;9727;50.200;19.038;2024-02-21T03:59:14;25.80;;;12.10;;
19189;SDS011;9727;50.200;19.038;2024-02-21T04:01:40;31.10;;;13.50;;
19189;SDS011;9727;50.200;19.038;2024-02-21T04:04:12;26.43;;;12.73;;
19189;SDS011;9727;50.200;19.038;2024-02-21T04:06:49;31.70;;;13.60;;
19189;SDS011;9727;50.200;19.038;2024-02-21T04:09:16;30.30;;;12.57;;
19189;SDS011;9727;50.200;19.038;2024-02-21T04:11:43;29.37;;;12.87;;
19189;SDS011;9727;50.200;19.038;2024-02-21T04:14:12;30.50;;;13.40;;
19189;SDS011;9727;50.200;19.038;2024-02-21T04:16:39;32.03;;;12.63;;
19189;SDS011;9727;50.200;19.038;2024-02-21T04:19:11;29.00;;;12.10;;
19189;SDS011;9727;50.200;19.038;2024-02-21T04:21:38;25.40;;;12.07;;
19189;SDS011;9727;50.200;19.038;2024-02-21T04:24:07;24.87;;;11.30;;
19189;SDS011;9727;50.200;19.038;2024-02-21T04:26:34;25.90;;;12.17;;
19189;SDS011;9727;50.200;19.038;2024-02-21T04:29:00;30.87;;;12.37;;
19189;SDS011;9727;50.200;19.038;2024-02-21T04:31:27;28.53;;;11.90;;
19189;SDS011;9727;50.200;19.038;2024-02-21T04:33:53;25.70;;;11.97;;
19189;SDS011;9727;50.200;19.038;2024-02-21T04:36:20;34.33;;;14.90;;
19189;SDS011;9727;50.200;19.038;2024-02-21T04:38:47;25.47;;;13.73;;
19189;SDS011;9727;50.200;19.038;2024-02-21T04:41:15;21.73;;;11.77;;
19189;SDS011;9727;50.200;19.038;2024-02-21T04:43:42;32.57;;;12.20;;
19189;SDS011;9727;50.200;19.038;2024-02-21T04:46:12;30.33;;;11.10;;
19189;SDS011;9727;50.200;19.038;2024-02-21T04:48:38;22.47;;;10.90;;
19189;SDS011;9727;50.200;19.038;2024-02-21T04:51:11;27.90;;;10.37;;
19189;SDS011;9727;50.200;19.038;2024-02-21T04:53:38;24.07;;;12.17;;
19189;SDS011;9727;50.200;19.038;2024-02-21T04:56:05;23.30;;;12.07;;
19189;SDS011;9727;50.200;19.038;2024-02-21T04:58:37;26.63;;;12.07;;
19189;SDS011;9727;50.200;19.038;2024-02-21T05:01:04;23.13;;;12.47;;
19189;SDS011;9727;50.200;19.038;2024-02-21T05:03:31;30.17;;;13.80;;
19189;SDS011;9727;50.200;19.038;2024-02-21T05:05:58;28.77;;;13.70;;
19189;SDS011;9727;50.200;19.038;2024-02-21T05:08:26;30.63;;;14.73;;
19189;SDS011;9727;50.200;19.038;2024-02-21T05:10:53;26.43;;;13.17;;
19189;SDS011;9727;50.200;19.038;2024-02-21T05:13:20;30.07;;;13.87;;
19189;SDS011;9727;50.200;19.038;2024-02-21T05:15:48;25.07;;;14.07;;
19189;SDS011;9727;50.200;19.038;2024-02-21T05:18:15;28.50;;;14.07;;
19189;SDS011;9727;50.200;19.038;2024-02-21T05:20:47;28.40;;;13.40;;
19189;SDS011;9727;50.200;19.038;2024-02-21T05:23:14;31.43;;;15.30;;
19189;SDS011;9727;50.200;19.038;2024-02-21T05:25:40;30.20;;;15.33;;
19189;SDS011;9727;50.200;19.038;2024-02-21T05:28:09;30.53;;;15.30;;
19189;SDS011;9727;50.200;19.038;2024-02-21T05:30:35;28.93;;;14.77;;
19189;SDS011;9727;50.200;19.038;2024-02-21T05:33:05;28.23;;;15.47;;
19189;SDS011;9727;50.200;19.038;2024-02-21T05:35:32;30.97;;;15.67;;
19189;SDS011;9727;50.200;19.038;2024-02-21T05:37:59;35.53;;;15.80;;
19189;SDS011;9727;50.200;19.038;2024-02-21T05:40:25;23.20;;;14.13;;
19189;SDS011;9727;50.200;19.038;2024-02-21T05:42:52;31.60;;;15.43;;
19189;SDS011;9727;50.200;19.038;2024-02-21T05:45:19;28.83;;;14.93;;
19189;SDS011;9727;50.200;19.038;2024-02-21T05:47:46;31.87;;;15.73;;
19189;SDS011;9727;50.200;19.038;2024-02-21T05:50:14;31.17;;;15.50;;
19189;SDS011;9727;50.200;19.038;2024-02-21T05:52:40;34.50;;;18.13;;
19189;SDS011;9727;50.200;19.038;2024-02-21T05:55:09;37.43;;;18.23;;
19189;SDS011;9727;50.200;19.038;2024-02-21T05:57:35;36.57;;;17.10;;
19189;SDS011;9727;50.200;19.038;2024-02-21T06:00:03;38.50;;;18.87;;
19189;SDS011;9727;50.200;19.038;2024-02-21T06:02:30;36.03;;;18.03;;
19189;SDS011;9727;50.200;19.038;2024-02-21T06:04:57;29.50;;;17.07;;
19189;SDS011;9727;50.200;19.038;2024-02-21T06:07:26;38.40;;;17.30;;
19189;SDS011;9727;50.200;19.038;2024-02-21T06:09:53;27.57;;;15.63;;
19189;SDS011;9727;50.200;19.038;2024-02-21T06:12:19;38.40;;;19.57;;
19189;SDS011;9727;50.200;19.038;2024-02-21T06:14:46;39.80;;;17.37;;
19189;SDS011;9727;50.200;19.038;2024-02-21T06:17:14;41.20;;;18.87;;
19189;SDS011;9727;50.200;19.038;2024-02-21T06:19:41;45.40;;;19.10;;
19189;SDS011;9727;50.200;19.038;2024-02-21T06:22:13;40.90;;;18.57;;
19189;SDS011;9727;50.200;19.038;2024-02-21T06:24:43;38.37;;;18.47;;
19189;SDS011;9727;50.200;19.038;2024-02-21T06:27:12;34.33;;;17.53;;
19189;SDS011;9727;50.200;19.038;2024-02-21T06:29:40;38.73;;;18.17;;
19189;SDS011;9727;50.200;19.038;2024-02-21T06:32:11;37.20;;;16.87;;
19189;SDS011;9727;50.200;19.038;2024-02-21T06:34:37;33.00;;;15.00;;
19189;SDS011;9727;50.200;19.038;2024-02-21T06:37:04;32.60;;;16.20;;
19189;SDS011;9727;50.200;19.038;2024-02-21T06:39:30;33.80;;;14.27;;
19189;SDS011;9727;50.200;19.038;2024-02-21T06:41:59;28.80;;;12.83;;
19189;SDS011;9727;50.200;19.038;2024-02-21T06:44:26;27.47;;;12.20;;
19189;SDS011;9727;50.200;19.038;2024-02-21T06:46:53;23.10;;;11.93;;
19189;SDS011;9727;50.200;19.038;2024-02-21T06:49:20;21.57;;;10.87;;
19189;SDS011;9727;50.200;19.038;2024-02-21T06:51:46;23.97;;;10.90;;
19189;SDS011;9727;50.200;19.038;2024-02-21T06:54:13;23.90;;;10.87;;
19189;SDS011;9727;50.200;19.038;2024-02-21T06:56:40;26.67;;;12.00;;
19189;SDS011;9727;50.200;19.038;2024-02-21T06:59:15;36.50;;;14.33;;
19189;SDS011;9727;50.200;19.038;2024-02-21T07:01:46;31.30;;;14.63;;
19189;SDS011;9727;50.200;19.038;2024-02-21T07:04:12;31.70;;;14.00;;
19189;SDS011;9727;50.200;19.038;2024-02-21T07:06:40;31.40;;;13.63;;
19189;SDS011;9727;50.200;19.038;2024-02-21T07:09:08;32.97;;;15.33;;
19189;SDS011;9727;50.200;19.038;2024-02-21T07:11:35;26.30;;;13.73;;
19189;SDS011;9727;50.200;19.038;2024-02-21T07:14:02;27.40;;;13.93;;
19189;SDS011;9727;50.200;19.038;2024-02-21T07:16:30;30.07;;;12.77;;
19189;SDS011;9727;50.200;19.038;2024-02-21T07:18:57;25.47;;;13.87;;
19189;SDS011;9727;50.200;19.038;2024-02-21T07:21:24;33.93;;;13.97;;
19189;SDS011;9727;50.200;19.038;2024-02-21T07:23:51;29.83;;;13.30;;
19189;SDS011;9727;50.200;19.038;2024-02-21T07:26:18;23.70;;;11.00;;
19189;SDS011;9727;50.200;19.038;2024-02-21T07:28:46;26.57;;;12.00;;
19189;SDS011;9727;50.200;19.038;2024-02-21T07:31:13;31.37;;;12.93;;
19189;SDS011;9727;50.200;19.038;2024-02-21T07:33:49;27.33;;;11.27;;
19189;SDS011;9727;50.200;19.038;2024-02-21T07:36:15;27.50;;;12.27;;
19189;SDS011;9727;50.200;19.038;2024-02-21T07:38:48;28.83;;;12.83;;
19189;SDS011;9727;50.200;19.038;2024-02-21T07:41:15;34.07;;;13.60;;
19189;SDS011;9727;50.200;19.038;2024-02-21T07:43:43;32.87;;;13.70;;
19189;SDS011;9727;50.200;19.038;2024-02-21T07:46:13;32.57;;;14.77;;
19189;SDS011;9727;50.200;19.038;2024-02-21T07:48:46;30.80;;;14.03;;
19189;SDS011;9727;50.200;19.038;2024-02-21T07:51:12;35.27;;;14.77;;
19189;SDS011;9727;50.200;19.038;2024-02-21T07:53:39;29.23;;;14.13;;
19189;SDS011;9727;50.200;19.038;2024-02-21T07:56:11;30.87;;;14.30;;
19189;SDS011;9727;50.200;19.038;2024-02-21T07:58:38;27.43;;;13.53;;
19189;SDS011;9727;50.200;19.038;2024-02-21T08:01:05;26.27;;;11.57;;
19189;SDS011;9727;50.200;19.038;2024-02-21T08:03:32;32.00;;;12.50;;
19189;SDS011;9727;50.200;19.038;2024-02-21T08:06:00;24.37;;;11.50;;
19189;SDS011;9727;50.200;19.038;2024-02-21T08:08:26;23.43;;;11.33;;
19189;SDS011;9727;50.200;19.038;2024-02-21T08:10:53;35.00;;;13.53;;
19189;SDS011;9727;50.200;19.038;2024-02-21T08:13:19;26.77;;;11.40;;
19189;SDS011;9727;50.200;19.038;2024-02-21T08:15:46;23.60;;;11.37;;
19189;SDS011;9727;50.200;19.038;2024-02-21T08:18:13;27.50;;;12.23;;
19189;SDS011;9727;50.200;19.038;2024-02-21T08:20:39;32.93;;;13.30;;
19189;SDS011;9727;50.200;19.038;2024-02-21T08:23:09;29.40;;;11.30;;
19189;SDS011;9727;50.200;19.038;2024-02-21T08:25:36;23.63;;;10.67;;
19189;SDS011;9727;50.200;19.038;2024-02-21T08:28:03;20.33;;;10.60;;
19189;SDS011;9727;50.200;19.038;2024-02-21T08:30:29;25.50;;;11.40;;
19189;SDS011;9727;50.200;19.038;2024-02-21T08:32:56;22.43;;;11.57;;
19189;SDS011;9727;50.200;19.038;2024-02-21T08:35:23;28.93;;;10.10;;
19189;SDS011;9727;50.200;19.038;2024-02-21T08:37:50;25.00;;;10.50;;
19189;SDS011;9727;50.200;19.038;2024-02-21T08:40:20;27.93;;;10.27;;
19189;SDS011;9727;50.200;19.038;2024-02-21T08:42:47;21.50;;;10.50;;
19189;SDS011;9727;50.200;19.038;2024-02-21T08:45:14;20.20;;;9.17;;
19189;SDS011;9727;50.200;19.038;2024-02-21T08:47:41;21.37;;;9.60;;
19189;SDS011;9727;50.200;19.038;2024-02-21T08:50:13;20.87;;;9.23;;
19189;SDS011;9727;50.200;19.038;2024-02-21T08:52:40;18.47;;;8.57;;
19189;SDS011;9727;50.200;19.038;2024-02-21T08:55:11;20.60;;;9.40;;
19189;SDS011;9727;50.200;19.038;2024-02-21T08:57:39;24.30;;;9.37;;
19189;SDS011;9727;50.200;19.038;2024-02-21T09:00:11;29.10;;;10.03;;
19189;SDS011;9727;50.200;19.038;2024-02-21T09:02:39;21.77;;;9.00;;
19189;SDS011;9727;50.200;19.038;2024-02-21T09:05:08;19.47;;;8.97;;
19189;SDS011;9727;50.200;19.038;2024-02-21T09:07:34;21.73;;;10.13;;
19189;SDS011;9727;50.200;19.038;2024-02-21T09:10:01;26.50;;;9.67;;
19189;SDS011;9727;50.200;19.038;2024-02-21T09:12:28;20.23;;;9.87;;
19189;SDS011;9727;50.200;19.038;2024-02-21T09:14:56;16.67;;;9.20;;
19189;SDS011;9727;50.200;19.038;2024-02-21T09:17:23;20.67;;;9.50;;
19189;SDS011;9727;50.200;19.038;2024-02-21T09:19:50;16.80;;;9.53;;
19189;SDS011;9727;50.200;19.038;2024-02-21T09:22:17;20.17;;;10.10;;
19189;SDS011;9727;50.200;19.038;2024-02-21T09:24:49;23.30;;;9.17;;
19189;SDS011;9727;50.200;19.038;2024-02-21T09:27:16;16.80;;;7.80;;
19189;SDS011;9727;50.200;19.038;2024-02-21T09:29:42;17.40;;;7.93;;
19189;SDS011;9727;50.200;19.038;2024-02-21T09:32:13;17.47;;;8.13;;
19189;SDS011;9727;50.200;19.038;2024-02-21T09:34:40;18.73;;;8.27;;
19189;SDS011;9727;50.200;19.038;2024-02-21T09:37:15;20.87;;;7.77;;
19189;SDS011;9727;50.200;19.038;2024-02-21T09:39:42;18.60;;;8.03;;
19189;SDS011;9727;50.200;19.038;2024-02-21T09:42:13;18.70;;;7.70;;
19189;SDS011;9727;50.200;19.038;2024-02-21T09:44:40;19.53;;;8.17;;
19189;SDS011;9727;50.200;19.038;2024-02-21T09:47:19;16.97;;;7.03;;
19189;SDS011;9727;50.200;19.038;2024-02-21T09:49:46;17.87;;;7.13;;
19189;SDS011;9727;50.200;19.038;2024-02-21T09:52:13;15.50;;;6.40;;
19189;SDS011;9727;50.200;19.038;2024-02-21T09:54:47;14.97;;;7.07;;
19189;SDS011;9727;50.200;19.038;2024-02-21T09:57:14;15.70;;;7.43;;
19189;SDS011;9727;50.200;19.038;2024-02-21T09:59:47;13.47;;;6.30;;
19189;SDS011;9727;50.200;19.038;2024-02-21T10:02:17;14.60;;;6.60;;
19189;SDS011;9727;50.200;19.038;2024-02-21T10:04:46;19.47;;;7.60;;
19189;SDS011;9727;50.200;19.038;2024-02-21T10:07:13;13.43;;;6.23;;
19189;SDS011;9727;50.200;19.038;2024-02-21T10:09:39;15.90;;;6.40;;
19189;SDS011;9727;50.200;19.038;2024-02-21T10:12:12;16.03;;;6.10;;
19189;SDS011;9727;50.200;19.038;2024-02-21T10:14:40;15.00;;;6.03;;
19189;SDS011;9727;50.200;19.038;2024-02-21T10:17:15;12.17;;;5.53;;
19189;SDS011;9727;50.200;19.038;2024-02-21T10:19:47;14.63;;;6.10;;
19189;SDS011;9727;50.200;19.038;2024-02-21T10:22:15;15.83;;;5.73;;
19189;SDS011;9727;50.200;19.038;2024-02-21T10:24:43;14.57;;;5.57;;
19189;SDS011;9727;50.200;19.038;2024-02-21T10:27:19;16.03;;;6.63;;
19189;SDS011;9727;50.200;19.038;2024-02-21T10:29:49;16.23;;;6.13;;
19189;SDS011;9727;50.200;19.038;2024-02-21T10:32:16;12.70;;;5.00;;
19189;SDS011;9727;50.200;19.038;2024-02-21T10:34:47;13.53;;;5.50;;
19189;SDS011;9727;50.200;19.038;2024-02-21T10:37:16;12.67;;;5.00;;
19189;SDS011;9727;50.200;19.038;2024-02-21T10:39:43;13.87;;;4.90;;
19189;SDS011;9727;50.200;19.038;2024-02-21T10:42:12;12.23;;;5.13;;
19189;SDS011;9727;50.200;19.038;2024-02-21T10:44:40;15.63;;;5.50;;
19189;SDS011;9727;50.200;19.038;2024-02-21T10:47:16;11.43;;;4.83;;
19189;SDS011;9727;50.200;19.038;2024-02-21T10:50:02;12.93;;;4.87;;
19189;SDS011;9727;50.200;19.038;2024-02-21T10:52:32;13.13;;;5.03;;
19189;SDS011;9727;50.200;19.038;2024-02-21T10:55:07;9.93;;;4.33;;
19189;SDS011;9727;50.200;19.038;2024-02-21T10:57:36;11.87;;;4.23;;
19189;SDS011;9727;50.200;19.038;2024-02-21T11:00:04;11.50;;;3.90;;
19189;SDS011;9727;50.200;19.038;2024-02-21T11:02:33;13.37;;;4.73;;
19189;SDS011;9727;50.200;19.038;2024-02-21T11:05:01;8.03;;;3.90;;
19189;SDS011;9727;50.200;19.038;2024-02-21T11:07:29;14.67;;;4.70;;
19189;SDS011;9727;50.200;19.038;2024-02-21T11:09:58;10.23;;;3.90;;
19189;SDS011;9727;50.200;19.038;2024-02-21T11:12:25;13.80;;;3.43;;
19189;SDS011;9727;50.200;19.038;2024-02-21T11:14:52;14.93;;;3.60;;
19189;SDS011;9727;50.200;19.038;2024-02-21T11:17:19;12.20;;;3.87;;
19189;SDS011;9727;50.200;19.038;2024-02-21T11:19:46;12.27;;;3.73;;
19189;SDS011;9727;50.200;19.038;2024-02-21T11:22:18;14.00;;;3.90;;
19189;SDS011;9727;50.200;19.038;2024-02-21T11:24:47;14.83;;;4.17;;
19189;SDS011;9727;50.200;19.038;2024-02-21T11:27:14;10.23;;;3.53;;
19189;SDS011;9727;50.200;19.038;2024-02-21T11:29:47;12.57;;;3.70;;
19189;SDS011;9727;50.200;19.038;2024-02-21T11:32:18;14.23;;;4.43;;
19189;SDS011;9727;50.200;19.038;2024-02-21T11:34:55;11.70;;;3.93;;
19189;SDS011;9727;50.200;19.038;2024-02-21T11:37:23;13.90;;;4.03;;
19189;SDS011;9727;50.200;19.038;2024-02-21T11:39:50;14.00;;;4.50;;
19189;SDS011;9727;50.200;19.038;2024-02-21T11:42:18;12.63;;;4.37;;
19189;SDS011;9727;50.200;19.038;2024-02-21T11:44:48;13.20;;;4.23;;
19189;SDS011;9727;50.200;19.038;2024-02-21T11:47:14;11.43;;;3.70;;
19189;SDS011;9727;50.200;19.038;2024-02-21T11:49:43;13.07;;;4.13;;
19189;SDS011;9727;50.200;19.038;2024-02-21T11:52:12;10.43;;;4.20;;
19189;SDS011;9727;50.200;19.038;2024-02-21T11:54:46;14.27;;;3.57;;
19189;SDS011;9727;50.200;19.038;2024-02-21T11:57:13;14.43;;;3.73;;
19189;SDS011;9727;50.200;19.038;2024-02-21T11:59:39;11.00;;;3.60;;
19189;SDS011;9727;50.200;19.038;2024-02-21T12:02:06;9.70;;;4.07;;
19189;SDS011;9727;50.200;19.038;2024-02-21T12:04:32;9.63;;;3.40;;
19189;SDS011;9727;50.200;19.038;2024-02-21T12:06:59;13.10;;;3.93;;
19189;SDS011;9727;50.200;19.038;2024-02-21T12:09:26;10.43;;;4.03;;
19189;SDS011;9727;50.200;19.038;2024-02-21T12:12:00;9.13;;;3.53;;
19189;SDS011;9727;50.200;19.038;2024-02-21T12:14:28;13.70;;;3.97;;
19189;SDS011;9727;50.200;19.038;2024-02-21T12:16:55;9.90;;;3.80;;
19189;SDS011;9727;50.200;19.038;2024-02-21T12:19:22;8.23;;;3.57;;
19189;SDS011;9727;50.200;19.038;2024-02-21T12:21:49;12.27;;;4.20;;
19189;SDS011;9727;50.200;19.038;2024-02-21T12:24:21;15.43;;;4.60;;
19189;SDS011;9727;50.200;19.038;2024-02-21T12:26:48;17.03;;;4.53;;
19189;SDS011;9727;50.200;19.038;2024-02-21T12:29:16;13.17;;;4.40;;
19189;SDS011;9727;50.200;19.038;2024-02-21T12:31:43;12.47;;;4.30;;
19189;SDS011;9727;50.200;19.038;2024-02-21T12:34:11;12.17;;;4.97;;
19189;SDS011;9727;50.200;19.038;2024-02-21T12:36:40;11.43;;;4.37;;
19189;SDS011;9727;50.200;19.038;2024-02-21T12:39:09;14.43;;;4.70;;
19189;SDS011;9727;50.200;19.038;2024-02-21T12:41:36;13.00;;;4.60;;
19189;SDS011;9727;50.200;19.038;2024-02-21T12:44:03;14.77;;;4.67;;
19189;SDS011;9727;50.200;19.038;2024-02-21T12:46:33;14.73;;;4.87;;
19189;SDS011;9727;50.200;19.038;2024-02-21T12:49:00;13.80;;;4.60;;
19189;SDS011;9727;50.200;19.038;2024-02-21T12:51:26;12.87;;;4.53;;
19189;SDS011;9727;50.200;19.038;2024-02-21T12:53:53;9.50;;;4.37;;
19189;SDS011;9727;50.200;19.038;2024-02-21T12:56:19;10.77;;;3.60;;
19189;SDS011;9727;50.200;19.038;2024-02-21T12:58:46;7.23;;;3.40;;
19189;SDS011;9727;50.200;19.038;2024-02-21T13:01:13;10.73;;;4.50;;
19189;SDS011;9727;50.200;19.038;2024-02-21T13:03:42;10.33;;;4.30;;
19189;SDS011;9727;50.200;19.038;2024-02-21T13:06:11;11.33;;;4.20;;
19189;SDS011;9727;50.200;19.038;2024-02-21T13:08:38;13.40;;;4.67;;
19189;SDS011;9727;50.200;19.038;2024-02-21T13:11:05;10.40;;;4.07;;
19189;SDS011;9727;50.200;19.038;2024-02-21T13:13:32;9.60;;;3.90;;
19189;SDS011;9727;50.200;19.038;2024-02-21T13:15:59;13.60;;;4.10;;
19189;SDS011;9727;50.200;19.038;2024-02-21T13:18:26;13.60;;;4.10;;
19189;SDS011;9727;50.200;19.038;2024-02-21T13:20:54;8.57;;;3.90;;
19189;SDS011;9727;50.200;19.038;2024-02-21T13:23:21;9.60;;;4.60;;
19189;SDS011;9727;50.200;19.038;2024-02-21T13:25:47;11.40;;;4.60;;
19189;SDS011;9727;50.200;19.038;2024-02-21T13:28:14;13.70;;;5.70;;
19189;SDS011;9727;50.200;19.038;2024-02-21T13:30:47;14.63;;;6.00;;
19189;SDS011;9727;50.200;19.038;2024-02-21T13:33:14;10.93;;;5.30;;
19189;SDS011;9727;50.200;19.038;2024-02-21T13:35:41;13.17;;;6.00;;
19189;SDS011;9727;50.200;19.038;2024-02-21T13:38:15;10.47;;;5.63;;
19189;SDS011;9727;50.200;19.038;2024-02-21T13:40:47;12.87;;;5.13;;
19189;SDS011;9727;50.200;19.038;2024-02-21T13:43:14;16.30;;;5.40;;
19189;SDS011;9727;50.200;19.038;2024-02-21T13:45:40;13.33;;;5.77;;
19189;SDS011;9727;50.200;19.038;2024-02-21T13:48:13;12.20;;;5.50;;
19189;SDS011;9727;50.200;19.038;2024-02-21T13:50:40;14.17;;;5.83;;
19189;SDS011;9727;50.200;19.038;2024-02-21T13:53:12;12.77;;;5.53;;
19189;SDS011;9727;50.200;19.038;2024-02-21T13:55:39;13.90;;;5.80;;
19189;SDS011;9727;50.200;19.038;2024-02-21T13:58:05;13.33;;;5.80;;
19189;SDS011;9727;50.200;19.038;2024-02-21T14:00:34;15.37;;;6.20;;
19189;SDS011;9727;50.200;19.038;2024-02-21T14:03:01;16.87;;;6.70;;
19189;SDS011;9727;50.200;19.038;2024-02-21T14:05:27;17.87;;;6.73;;
19189;SDS011;9727;50.200;19.038;2024-02-21T14:07:54;18.13;;;6.83;;
19189;SDS011;9727;50.200;19.038;2024-02-21T14:10:22;14.50;;;6.13;;
19189;SDS011;9727;50.200;19.038;2024-02-21T14:12:49;13.60;;;6.77;;
19189;SDS011;9727;50.200;19.038;2024-02-21T14:15:15;16.30;;;6.57;;
19189;SDS011;9727;50.200;19.038;2024-02-21T14:17:42;14.47;;;5.83;;
19189;SDS011;9727;50.200;19.038;2024-02-21T14:20:12;15.37;;;6.33;;
19189;SDS011;9727;50.200;19.038;2024-02-21T14:22:39;17.03;;;7.20;;
19189;SDS011;9727;50.200;19.038;2024-02-21T14:25:06;13.13;;;6.30;;
19189;SDS011;9727;50.200;19.038;2024-02-21T14:27:34;15.80;;;6.60;;
19189;SDS011;9727;50.200;19.038;2024-02-21T14:30:01;18.40;;;6.70;;
19189;SDS011;9727;50.200;19.038;2024-02-21T14:32:28;12.73;;;5.77;;
19189;SDS011;9727;50.200;19.038;2024-02-21T14:34:55;15.97;;;5.90;;